• Join FlightAware (Why Join?)
  • Login
  • US Flag 
06:41AM EDT


 

Airport Tracker/Info


-or-


 

Live Flight TrackerFlight Track Log ✈ SKW5564 ✈ 30-Jun-2013 ✈ KPSP - KLAX

Flight Track Log - Related Links

Times and Time Zones

All times are in EDT time to prevent confusion due to time zone crossing. See the SKW5564 flight status page for this flight to view local times or setup timezone preferences in your user account.

Time Position Orientation Groundspeed Altitude Reporting Facility
EDT Latitude Longitude Course Direction KTS MPH feet Rate Location/Type
08:39PM 33.7833 -116.3833 107° East 205 236 3,100  Level Southern California TRACON
08:40PM 33.8167 -116.3833 360° North 176 203 4,300 1,080 Climbing Southern California TRACON
08:41PM 33.8667 -116.4167 331° Northwest 184 212 5,300 900 Climbing Southern California TRACON
08:42PM 33.8833 -116.4833 287° West 199 229 6,200 900 Climbing Southern California TRACON
08:43PM 33.9000 -116.5500 287° West 202 232 7,200 1,080 Climbing Southern California TRACON
08:44PM 33.8500 -116.9263 270° West  Level FlightAware Approximate
08:44PM 33.9150 -116.6119 286° West 205 236 8,500  Level Los Angeles Center
08:46PM 33.9289 -116.6811 284° West 209 241 9,200 660 Climbing Los Angeles Center
08:47PM 33.9453 -116.7656 283° West 216 249 10,100 420 Climbing Los Angeles Center
08:48PM 33.9403 -116.8481 266° West 244 281 10,100 -120 Level Los Angeles Center
08:48PM 33.9500 -116.9167 280° West 259 298 10,000 -180 Descending Southern California TRACON
08:49PM 33.9333 -117.0000 256° West 267 307 9,900 -300 Descending Southern California TRACON
08:50PM 33.9333 -117.1000 270° West 284 327 9,400 -540 Descending Southern California TRACON
08:51PM 33.9333 -117.1833 270° West 286 329 8,900 -540 Descending Southern California TRACON
08:52PM 33.9333 -117.2833 270° West 284 327 8,400 -480 Descending Southern California TRACON
08:53PM 33.9333 -117.3667 270° West 282 325 8,000 -300 Descending Southern California TRACON
08:54PM 33.9167 -117.4667 259° West 275 316 7,900  Descending Southern California TRACON
08:55PM 33.9167 -117.5667 270° West 271 312 8,000  Climbing Southern California TRACON
08:56PM 33.9167 -117.6333 270° West 272 313 8,000 -60 Level Southern California TRACON
08:57PM 33.9167 -117.7333 270° West 268 308 7,900 -60 Descending Southern California TRACON
08:58PM 33.9333 -117.8167 284° West 265 305 7,900 -180 Level Southern California TRACON
08:59PM 33.9500 -117.9000 284° West 273 314 7,600 -600 Descending Southern California TRACON
09:00PM 33.9667 -118.0000 281° West 290 334 6,800 -1,260 Descending Southern California TRACON
09:01PM 33.9667 -118.1000 270° West 285 328 5,100 -1,860 Descending Southern California TRACON
09:02PM 33.9592 -118.1719 263° West 278 320 3,200 -1,440 Descending Los Angeles Center
09:03PM 33.9514 -118.2533 263° West 257 296 2,300 -960 Descending Los Angeles Center
09:04PM 33.9450 -118.3111 262° West 206 237 1,300 -840 Descending Los Angeles Center
09:05PM 33.9408 -118.3547 263° West 160 184 600 -540 Descending Los Angeles Center
09:06PM 33.9367 -118.4036 264° West 146 168 200 -420 Descending Los Angeles Center
09:08PM 33.9425 -118.4081 138° Southeast  Level Estimated